createdAt,value
2018-06-13T00:01:48.726Z,1.98
2018-06-13T00:07:43.719Z,1.88
2018-06-13T00:13:38.662Z,1.76
2018-06-13T00:19:33.676Z,2.16
2018-06-13T00:25:28.693Z,1.96
2018-06-13T00:31:23.715Z,2.56
2018-06-13T00:37:18.718Z,2.08
2018-06-13T00:43:13.696Z,1.75
2018-06-13T00:49:08.751Z,2.11
2018-06-13T00:55:03.699Z,2.47
2018-06-13T01:00:58.703Z,2.36
2018-06-13T01:06:53.713Z,2.58
2018-06-13T01:12:48.736Z,2.79
2018-06-13T01:18:43.742Z,2.31
2018-06-13T01:24:38.962Z,1.91
2018-06-13T01:30:33.734Z,2.24
2018-06-13T01:36:28.710Z,3.17
2018-06-13T01:42:23.700Z,2.2
2018-06-13T01:48:18.703Z,2.12
2018-06-13T01:54:13.709Z,2.45
2018-06-13T02:00:09.445Z,2.4
2018-06-13T02:06:03.964Z,2.57
2018-06-13T02:11:58.713Z,2.17
2018-06-13T02:17:53.751Z,2.04
2018-06-13T02:23:48.720Z,2.4
2018-06-13T02:29:43.719Z,2.05
2018-06-13T02:35:38.734Z,2.11
2018-06-13T02:41:33.743Z,2.04
2018-06-13T02:47:28.724Z,2.22
2018-06-13T02:53:23.734Z,2.28
2018-06-13T02:59:18.726Z,2.92
2018-06-13T03:05:13.995Z,2.53
2018-06-13T03:11:08.746Z,2.42
2018-06-13T03:17:03.724Z,2.67
2018-06-13T03:22:58.760Z,2.67
2018-06-13T03:28:53.723Z,2.5
2018-06-13T03:34:48.754Z,2.49
2018-06-13T03:40:43.862Z,2.47
2018-06-13T03:46:38.749Z,2.96
2018-06-13T03:52:33.742Z,2.7
2018-06-13T03:58:28.709Z,2.19
2018-06-13T04:04:23.756Z,2.88
2018-06-13T04:10:18.751Z,2.45
2018-06-13T04:16:13.712Z,3.03
2018-06-13T04:22:08.795Z,2.69
2018-06-13T04:28:03.718Z,3.3
2018-06-13T04:33:58.736Z,3.05
2018-06-13T04:39:53.783Z,2.53
2018-06-13T04:45:48.772Z,2.3
2018-06-13T04:51:43.757Z,2.37
2018-06-13T04:57:38.765Z,2.27
2018-06-13T05:03:33.781Z,2.65
2018-06-13T05:09:28.730Z,2.65
2018-06-13T05:15:23.764Z,2.36
2018-06-13T05:21:18.727Z,2.56
2018-06-13T05:27:13.745Z,2.83
2018-06-13T05:33:08.746Z,2.23
2018-06-13T05:39:03.734Z,1.88
2018-06-13T05:44:58.762Z,2.09
2018-06-13T05:50:53.781Z,2.17
2018-06-13T05:56:48.759Z,2.1
2018-06-13T06:02:43.744Z,2.32
2018-06-13T06:08:38.790Z,2.07
2018-06-13T06:14:33.788Z,2.17
2018-06-13T06:20:28.774Z,2.53
2018-06-13T06:26:23.764Z,2.69
2018-06-13T06:32:18.748Z,2.59
2018-06-13T06:38:13.817Z,2.81
2018-06-13T06:44:08.753Z,3.38
2018-06-13T06:50:04.100Z,3.03
2018-06-13T06:55:58.777Z,3.44
2018-06-13T07:01:53.764Z,2.83
2018-06-13T07:07:48.788Z,3.46
2018-06-13T07:13:43.798Z,3.33
2018-06-13T07:19:38.804Z,3.37
2018-06-13T07:25:33.786Z,3.67
2018-06-13T07:31:28.816Z,3.71
2018-06-13T07:37:23.782Z,3.02
2018-06-13T07:43:18.800Z,3.26
2018-06-13T07:49:13.766Z,3.3
2018-06-13T07:55:08.974Z,3.6
2018-06-13T08:01:04.146Z,3.25
2018-06-13T08:06:58.809Z,3.2
2018-06-13T08:12:53.825Z,3.4
2018-06-13T08:18:48.873Z,3.46
2018-06-13T08:24:43.826Z,2.35
2018-06-13T08:30:38.830Z,3
2018-06-13T08:36:33.813Z,2.92
2018-06-13T08:42:28.850Z,2.64
2018-06-13T08:48:23.834Z,2.54
2018-06-13T08:54:18.829Z,2.81
2018-06-13T09:00:13.831Z,2.33
2018-06-13T09:06:08.844Z,2.85
2018-06-13T09:12:03.833Z,1.78
2018-06-13T09:17:58.835Z,2.12
2018-06-13T09:23:53.859Z,2.56
2018-06-13T09:29:48.926Z,1.55
2018-06-13T09:35:43.831Z,1.52
2018-06-13T09:41:38.834Z,1.81
2018-06-13T09:48:08.982Z,2.08
2018-06-13T09:53:28.877Z,1.72
2018-06-13T10:00:26.898Z,1.93
2018-06-13T10:11:13.919Z,1.93
2018-06-13T10:17:12.972Z,1.19
2018-06-13T10:23:03.888Z,1.29
2018-06-13T10:29:02.928Z,1.38
2018-06-13T10:34:53.847Z,1.75
2018-06-13T10:40:48.884Z,1.65
2018-06-13T10:46:43.858Z,1.65
2018-06-13T10:52:38.880Z,1.36
2018-06-13T10:58:33.913Z,0.94
2018-06-13T11:04:28.916Z,1.43
2018-06-13T11:10:23.944Z,1.43
2018-06-13T11:16:18.854Z,1.45
2018-06-13T11:22:13.906Z,1.55
2018-06-13T11:28:08.893Z,1.53
2018-06-13T11:34:03.912Z,1.46
2018-06-13T11:39:58.860Z,1.33
2018-06-13T11:45:53.881Z,1.77
2018-06-13T11:51:48.881Z,1.25
2018-06-13T11:57:43.879Z,1.51
2018-06-13T12:03:38.884Z,1.56
2018-06-13T12:09:33.888Z,1.56
2018-06-13T12:15:28.907Z,1.39
2018-06-13T12:21:23.911Z,1.51
2018-06-13T12:33:19.879Z,1.4
2018-06-13T12:39:12.943Z,1.43
2018-06-13T12:45:03.923Z,1.25
2018-06-13T12:50:59.908Z,1.3
2018-06-13T12:56:53.929Z,1.7
2018-06-13T13:02:48.912Z,1.64
2018-06-13T13:08:43.918Z,2.58
2018-06-13T13:14:38.884Z,1.86
2018-06-13T13:20:33.933Z,2.03
2018-06-13T13:26:28.955Z,1.89
2018-06-13T13:38:18.930Z,2.42
2018-06-13T13:44:14.056Z,1.49
2018-06-13T13:50:08.913Z,1.13
2018-06-13T13:56:03.922Z,1.37
2018-06-13T14:01:58.933Z,1.33
2018-06-13T14:07:54.016Z,1.05
2018-06-13T14:13:48.957Z,1.14
2018-06-13T14:19:43.924Z,1.57
2018-06-13T14:25:38.951Z,1.68
2018-06-13T14:31:33.972Z,1.58
